sensor_id;sensor_type;location;lat;lon;timestamp;P1;durP1;ratioP1;P2;durP2;ratioP2
76667;SDS011;65585;51.166;16.922;2023-02-04T00:01:28;4.18;;;1.77;;
76667;SDS011;65585;51.166;16.922;2023-02-04T00:03:55;4.20;;;1.92;;
76667;SDS011;65585;51.166;16.922;2023-02-04T00:06:24;2.00;;;1.35;;
76667;SDS011;65585;51.166;16.922;2023-02-04T00:08:50;1.92;;;1.10;;
76667;SDS011;65585;51.166;16.922;2023-02-04T00:11:16;2.58;;;1.40;;
76667;SDS011;65585;51.166;16.922;2023-02-04T00:13:42;2.30;;;1.33;;
76667;SDS011;65585;51.166;16.922;2023-02-04T00:16:08;2.05;;;1.55;;
76667;SDS011;65585;51.166;16.922;2023-02-04T00:18:35;1.60;;;1.40;;
76667;SDS011;65585;51.166;16.922;2023-02-04T00:21:01;2.58;;;2.00;;
76667;SDS011;65585;51.166;16.922;2023-02-04T00:23:27;2.08;;;1.67;;
76667;SDS011;65585;51.166;16.922;2023-02-04T00:25:53;2.17;;;1.58;;
76667;SDS011;65585;51.166;16.922;2023-02-04T00:28:19;1.98;;;1.70;;
76667;SDS011;65585;51.166;16.922;2023-02-04T00:30:45;2.45;;;1.65;;
76667;SDS011;65585;51.166;16.922;2023-02-04T00:33:12;1.88;;;1.67;;
76667;SDS011;65585;51.166;16.922;2023-02-04T00:35:38;1.48;;;1.27;;
76667;SDS011;65585;51.166;16.922;2023-02-04T00:38:05;2.05;;;1.55;;
76667;SDS011;65585;51.166;16.922;2023-02-04T00:40:34;2.05;;;1.45;;
76667;SDS011;65585;51.166;16.922;2023-02-04T00:43:00;5.00;;;2.10;;
76667;SDS011;65585;51.166;16.922;2023-02-04T00:45:26;3.42;;;1.92;;
76667;SDS011;65585;51.166;16.922;2023-02-04T00:47:53;2.65;;;1.80;;
76667;SDS011;65585;51.166;16.922;2023-02-04T00:50:19;2.92;;;1.80;;
76667;SDS011;65585;51.166;16.922;2023-02-04T00:52:45;1.75;;;1.40;;
76667;SDS011;65585;51.166;16.922;2023-02-04T00:55:11;4.72;;;2.25;;
76667;SDS011;65585;51.166;16.922;2023-02-04T00:57:42;2.20;;;1.75;;
76667;SDS011;65585;51.166;16.922;2023-02-04T01:00:11;3.00;;;1.80;;
76667;SDS011;65585;51.166;16.922;2023-02-04T01:02:39;2.10;;;1.73;;
76667;SDS011;65585;51.166;16.922;2023-02-04T01:05:05;2.25;;;1.60;;
76667;SDS011;65585;51.166;16.922;2023-02-04T01:09:59;2.15;;;1.85;;
76667;SDS011;65585;51.166;16.922;2023-02-04T01:12:25;2.10;;;1.80;;
76667;SDS011;65585;51.166;16.922;2023-02-04T01:14:53;2.45;;;1.98;;
76667;SDS011;65585;51.166;16.922;2023-02-04T01:17:20;3.28;;;2.53;;
76667;SDS011;65585;51.166;16.922;2023-02-04T01:19:46;2.70;;;2.30;;
76667;SDS011;65585;51.166;16.922;2023-02-04T01:22:13;3.58;;;2.70;;
76667;SDS011;65585;51.166;16.922;2023-02-04T01:24:38;2.85;;;2.55;;
76667;SDS011;65585;51.166;16.922;2023-02-04T01:27:05;4.18;;;2.63;;
76667;SDS011;65585;51.166;16.922;2023-02-04T01:29:31;3.67;;;2.65;;
76667;SDS011;65585;51.166;16.922;2023-02-04T01:31:57;3.97;;;2.63;;
76667;SDS011;65585;51.166;16.922;2023-02-04T01:34:23;5.95;;;4.35;;
76667;SDS011;65585;51.166;16.922;2023-02-04T01:36:50;6.10;;;4.38;;
76667;SDS011;65585;51.166;16.922;2023-02-04T01:39:16;6.07;;;5.13;;
76667;SDS011;65585;51.166;16.922;2023-02-04T01:41:43;8.95;;;6.97;;
76667;SDS011;65585;51.166;16.922;2023-02-04T01:44:09;11.18;;;7.07;;
76667;SDS011;65585;51.166;16.922;2023-02-04T01:46:35;9.45;;;6.28;;
76667;SDS011;65585;51.166;16.922;2023-02-04T01:49:02;11.77;;;7.72;;
76667;SDS011;65585;51.166;16.922;2023-02-04T01:51:29;10.80;;;8.57;;
76667;SDS011;65585;51.166;16.922;2023-02-04T01:53:57;13.70;;;9.23;;
76667;SDS011;65585;51.166;16.922;2023-02-04T01:56:24;12.13;;;9.40;;
76667;SDS011;65585;51.166;16.922;2023-02-04T01:58:52;12.75;;;10.25;;
76667;SDS011;65585;51.166;16.922;2023-02-04T02:04:08;13.65;;;9.27;;
76667;SDS011;65585;51.166;16.922;2023-02-04T02:06:47;13.65;;;8.60;;
76667;SDS011;65585;51.166;16.922;2023-02-04T02:09:14;11.98;;;9.68;;
76667;SDS011;65585;51.166;16.922;2023-02-04T02:11:41;11.05;;;7.45;;
76667;SDS011;65585;51.166;16.922;2023-02-04T02:14:07;10.52;;;8.35;;
76667;SDS011;65585;51.166;16.922;2023-02-04T02:16:34;12.93;;;9.60;;
76667;SDS011;65585;51.166;16.922;2023-02-04T02:19:00;9.90;;;7.82;;
76667;SDS011;65585;51.166;16.922;2023-02-04T02:22:09;9.85;;;6.65;;
76667;SDS011;65585;51.166;16.922;2023-02-04T02:24:25;9.20;;;7.18;;
76667;SDS011;65585;51.166;16.922;2023-02-04T02:26:52;9.35;;;7.47;;
76667;SDS011;65585;51.166;16.922;2023-02-04T02:29:18;8.52;;;6.47;;
76667;SDS011;65585;51.166;16.922;2023-02-04T02:31:45;7.80;;;6.53;;
76667;SDS011;65585;51.166;16.922;2023-02-04T02:34:11;8.32;;;6.07;;
76667;SDS011;65585;51.166;16.922;2023-02-04T02:36:37;7.25;;;5.88;;
76667;SDS011;65585;51.166;16.922;2023-02-04T02:39:03;11.63;;;6.40;;
76667;SDS011;65585;51.166;16.922;2023-02-04T02:41:29;8.45;;;6.93;;
76667;SDS011;65585;51.166;16.922;2023-02-04T02:43:55;6.63;;;5.53;;
76667;SDS011;65585;51.166;16.922;2023-02-04T02:46:22;7.57;;;6.10;;
76667;SDS011;65585;51.166;16.922;2023-02-04T02:48:48;6.82;;;4.85;;
76667;SDS011;65585;51.166;16.922;2023-02-04T02:51:15;7.43;;;5.55;;
76667;SDS011;65585;51.166;16.922;2023-02-04T02:53:41;6.55;;;5.07;;
76667;SDS011;65585;51.166;16.922;2023-02-04T02:56:07;5.28;;;4.35;;
76667;SDS011;65585;51.166;16.922;2023-02-04T02:58:34;5.07;;;4.30;;
76667;SDS011;65585;51.166;16.922;2023-02-04T03:01:02;5.28;;;4.60;;
76667;SDS011;65585;51.166;16.922;2023-02-04T03:03:31;4.22;;;3.67;;
76667;SDS011;65585;51.166;16.922;2023-02-04T03:05:59;5.70;;;3.50;;
76667;SDS011;65585;51.166;16.922;2023-02-04T03:08:30;5.50;;;3.67;;
76667;SDS011;65585;51.166;16.922;2023-02-04T03:10:56;4.60;;;3.10;;
76667;SDS011;65585;51.166;16.922;2023-02-04T03:13:22;5.50;;;4.13;;
76667;SDS011;65585;51.166;16.922;2023-02-04T03:15:49;4.57;;;3.17;;
76667;SDS011;65585;51.166;16.922;2023-02-04T03:18:15;4.95;;;3.15;;
76667;SDS011;65585;51.166;16.922;2023-02-04T03:20:44;4.95;;;3.40;;
76667;SDS011;65585;51.166;16.922;2023-02-04T03:23:10;3.65;;;3.03;;
76667;SDS011;65585;51.166;16.922;2023-02-04T03:25:37;2.80;;;2.50;;
76667;SDS011;65585;51.166;16.922;2023-02-04T03:28:03;3.70;;;2.95;;
76667;SDS011;65585;51.166;16.922;2023-02-04T03:30:30;4.57;;;2.88;;
76667;SDS011;65585;51.166;16.922;2023-02-04T03:32:56;3.58;;;3.10;;
76667;SDS011;65585;51.166;16.922;2023-02-04T03:35:23;4.10;;;2.92;;
76667;SDS011;65585;51.166;16.922;2023-02-04T03:37:49;3.63;;;3.03;;
76667;SDS011;65585;51.166;16.922;2023-02-04T03:40:16;5.00;;;3.05;;
76667;SDS011;65585;51.166;16.922;2023-02-04T03:42:42;3.97;;;2.92;;
76667;SDS011;65585;51.166;16.922;2023-02-04T03:45:08;4.97;;;3.35;;
76667;SDS011;65585;51.166;16.922;2023-02-04T03:47:34;5.90;;;3.60;;
76667;SDS011;65585;51.166;16.922;2023-02-04T03:50:01;4.82;;;2.97;;
76667;SDS011;65585;51.166;16.922;2023-02-04T03:52:27;5.45;;;3.67;;
76667;SDS011;65585;51.166;16.922;2023-02-04T03:54:53;5.75;;;3.05;;
76667;SDS011;65585;51.166;16.922;2023-02-04T03:57:19;6.15;;;3.65;;
76667;SDS011;65585;51.166;16.922;2023-02-04T03:59:46;5.22;;;3.47;;
76667;SDS011;65585;51.166;16.922;2023-02-04T04:02:12;5.10;;;3.30;;
76667;SDS011;65585;51.166;16.922;2023-02-04T04:04:39;3.75;;;2.22;;
76667;SDS011;65585;51.166;16.922;2023-02-04T04:07:05;4.82;;;3.03;;
76667;SDS011;65585;51.166;16.922;2023-02-04T04:09:31;4.22;;;2.92;;
76667;SDS011;65585;51.166;16.922;2023-02-04T04:11:57;4.57;;;2.90;;
76667;SDS011;65585;51.166;16.922;2023-02-04T04:14:23;5.57;;;3.38;;
76667;SDS011;65585;51.166;16.922;2023-02-04T04:16:49;4.05;;;2.97;;
76667;SDS011;65585;51.166;16.922;2023-02-04T04:19:16;3.97;;;3.00;;
76667;SDS011;65585;51.166;16.922;2023-02-04T04:21:42;7.03;;;3.28;;
76667;SDS011;65585;51.166;16.922;2023-02-04T04:24:08;5.70;;;3.58;;
76667;SDS011;65585;51.166;16.922;2023-02-04T04:26:34;5.63;;;3.58;;
76667;SDS011;65585;51.166;16.922;2023-02-04T04:29:00;5.28;;;3.45;;
76667;SDS011;65585;51.166;16.922;2023-02-04T04:31:26;5.28;;;3.35;;
76667;SDS011;65585;51.166;16.922;2023-02-04T04:33:52;5.50;;;3.78;;
76667;SDS011;65585;51.166;16.922;2023-02-04T04:36:18;4.90;;;3.13;;
76667;SDS011;65585;51.166;16.922;2023-02-04T04:38:45;4.97;;;3.00;;
76667;SDS011;65585;51.166;16.922;2023-02-04T04:41:11;5.40;;;3.78;;
76667;SDS011;65585;51.166;16.922;2023-02-04T04:43:38;4.60;;;3.38;;
76667;SDS011;65585;51.166;16.922;2023-02-04T04:46:04;8.15;;;3.72;;
76667;SDS011;65585;51.166;16.922;2023-02-04T04:48:30;4.07;;;3.28;;
76667;SDS011;65585;51.166;16.922;2023-02-04T04:50:56;5.22;;;3.88;;
76667;SDS011;65585;51.166;16.922;2023-02-04T04:53:23;5.40;;;3.90;;
76667;SDS011;65585;51.166;16.922;2023-02-04T04:55:49;6.10;;;3.97;;
76667;SDS011;65585;51.166;16.922;2023-02-04T04:58:15;5.15;;;3.67;;
76667;SDS011;65585;51.166;16.922;2023-02-04T05:00:41;6.22;;;4.53;;
76667;SDS011;65585;51.166;16.922;2023-02-04T05:03:07;5.65;;;4.63;;
76667;SDS011;65585;51.166;16.922;2023-02-04T05:05:33;5.72;;;3.58;;
76667;SDS011;65585;51.166;16.922;2023-02-04T05:08:04;8.13;;;3.95;;
76667;SDS011;65585;51.166;16.922;2023-02-04T05:10:32;4.13;;;3.55;;
76667;SDS011;65585;51.166;16.922;2023-02-04T05:12:58;6.72;;;5.43;;
76667;SDS011;65585;51.166;16.922;2023-02-04T05:15:25;4.72;;;3.40;;
76667;SDS011;65585;51.166;16.922;2023-02-04T05:17:51;5.10;;;4.10;;
76667;SDS011;65585;51.166;16.922;2023-02-04T05:20:18;7.07;;;4.75;;
76667;SDS011;65585;51.166;16.922;2023-02-04T05:22:44;8.60;;;4.78;;
76667;SDS011;65585;51.166;16.922;2023-02-04T05:25:10;7.18;;;4.53;;
76667;SDS011;65585;51.166;16.922;2023-02-04T05:27:36;7.32;;;5.20;;
76667;SDS011;65585;51.166;16.922;2023-02-04T05:30:02;6.38;;;5.05;;
76667;SDS011;65585;51.166;16.922;2023-02-04T05:32:29;5.80;;;4.57;;
76667;SDS011;65585;51.166;16.922;2023-02-04T05:34:55;6.15;;;4.10;;
76667;SDS011;65585;51.166;16.922;2023-02-04T05:37:21;4.60;;;3.55;;
76667;SDS011;65585;51.166;16.922;2023-02-04T05:39:48;7.53;;;5.22;;
76667;SDS011;65585;51.166;16.922;2023-02-04T05:42:13;7.70;;;5.13;;
76667;SDS011;65585;51.166;16.922;2023-02-04T05:44:40;6.15;;;4.22;;
76667;SDS011;65585;51.166;16.922;2023-02-04T05:47:06;7.07;;;5.65;;
76667;SDS011;65585;51.166;16.922;2023-02-04T05:49:32;6.05;;;5.22;;
76667;SDS011;65585;51.166;16.922;2023-02-04T05:51:58;6.15;;;4.30;;
76667;SDS011;65585;51.166;16.922;2023-02-04T05:54:24;8.13;;;5.53;;
76667;SDS011;65585;51.166;16.922;2023-02-04T05:56:50;5.97;;;5.22;;
76667;SDS011;65585;51.166;16.922;2023-02-04T05:59:16;7.78;;;4.80;;
76667;SDS011;65585;51.166;16.922;2023-02-04T06:01:42;6.20;;;4.90;;
76667;SDS011;65585;51.166;16.922;2023-02-04T06:04:09;5.85;;;4.47;;
76667;SDS011;65585;51.166;16.922;2023-02-04T06:06:35;7.63;;;5.65;;
76667;SDS011;65585;51.166;16.922;2023-02-04T06:09:01;10.05;;;5.10;;
76667;SDS011;65585;51.166;16.922;2023-02-04T06:11:28;5.28;;;4.45;;
76667;SDS011;65585;51.166;16.922;2023-02-04T06:13:54;7.70;;;5.22;;
76667;SDS011;65585;51.166;16.922;2023-02-04T06:16:20;7.35;;;5.30;;
76667;SDS011;65585;51.166;16.922;2023-02-04T06:18:46;7.70;;;4.50;;
76667;SDS011;65585;51.166;16.922;2023-02-04T06:21:12;5.60;;;4.30;;
76667;SDS011;65585;51.166;16.922;2023-02-04T06:23:38;5.53;;;4.72;;
76667;SDS011;65585;51.166;16.922;2023-02-04T06:26:05;8.85;;;4.88;;
76667;SDS011;65585;51.166;16.922;2023-02-04T06:28:31;7.53;;;4.65;;
76667;SDS011;65585;51.166;16.922;2023-02-04T06:30:57;7.20;;;4.45;;
76667;SDS011;65585;51.166;16.922;2023-02-04T06:33:24;8.77;;;5.25;;
76667;SDS011;65585;51.166;16.922;2023-02-04T06:35:50;7.90;;;4.90;;
76667;SDS011;65585;51.166;16.922;2023-02-04T06:38:16;5.22;;;3.03;;
76667;SDS011;65585;51.166;16.922;2023-02-04T06:40:42;7.78;;;4.57;;
76667;SDS011;65585;51.166;16.922;2023-02-04T06:43:09;6.93;;;4.97;;
76667;SDS011;65585;51.166;16.922;2023-02-04T06:45:35;6.38;;;4.18;;
76667;SDS011;65585;51.166;16.922;2023-02-04T06:48:01;6.47;;;4.05;;
76667;SDS011;65585;51.166;16.922;2023-02-04T06:50:27;8.18;;;4.95;;
76667;SDS011;65585;51.166;16.922;2023-02-04T06:52:54;5.07;;;3.70;;
76667;SDS011;65585;51.166;16.922;2023-02-04T06:55:20;5.05;;;3.50;;
76667;SDS011;65585;51.166;16.922;2023-02-04T06:57:46;5.07;;;3.63;;
76667;SDS011;65585;51.166;16.922;2023-02-04T07:00:12;5.25;;;3.55;;
76667;SDS011;65585;51.166;16.922;2023-02-04T07:02:39;3.95;;;2.70;;
76667;SDS011;65585;51.166;16.922;2023-02-04T07:05:05;6.18;;;3.90;;
76667;SDS011;65585;51.166;16.922;2023-02-04T07:07:31;5.40;;;3.75;;
76667;SDS011;65585;51.166;16.922;2023-02-04T07:09:57;5.07;;;3.50;;
76667;SDS011;65585;51.166;16.922;2023-02-04T07:12:24;6.95;;;3.72;;
76667;SDS011;65585;51.166;16.922;2023-02-04T07:14:50;6.30;;;4.18;;
76667;SDS011;65585;51.166;16.922;2023-02-04T07:17:16;6.32;;;3.60;;
76667;SDS011;65585;51.166;16.922;2023-02-04T07:19:42;6.90;;;3.78;;
76667;SDS011;65585;51.166;16.922;2023-02-04T07:22:08;5.80;;;3.35;;
76667;SDS011;65585;51.166;16.922;2023-02-04T07:24:34;4.30;;;3.05;;
76667;SDS011;65585;51.166;16.922;2023-02-04T07:27:01;5.38;;;3.10;;
76667;SDS011;65585;51.166;16.922;2023-02-04T07:29:27;4.43;;;3.00;;
76667;SDS011;65585;51.166;16.922;2023-02-04T07:31:53;5.82;;;3.70;;
76667;SDS011;65585;51.166;16.922;2023-02-04T07:34:19;6.10;;;3.67;;
76667;SDS011;65585;51.166;16.922;2023-02-04T07:36:45;4.30;;;3.00;;
76667;SDS011;65585;51.166;16.922;2023-02-04T07:39:11;4.60;;;3.17;;
76667;SDS011;65585;51.166;16.922;2023-02-04T07:41:38;6.00;;;3.38;;
76667;SDS011;65585;51.166;16.922;2023-02-04T07:44:04;5.32;;;3.63;;
76667;SDS011;65585;51.166;16.922;2023-02-04T07:46:30;4.30;;;3.03;;
76667;SDS011;65585;51.166;16.922;2023-02-04T07:48:56;7.25;;;3.30;;
76667;SDS011;65585;51.166;16.922;2023-02-04T07:51:22;6.32;;;3.88;;
76667;SDS011;65585;51.166;16.922;2023-02-04T07:53:48;5.30;;;3.08;;
76667;SDS011;65585;51.166;16.922;2023-02-04T07:56:15;6.88;;;3.28;;
76667;SDS011;65585;51.166;16.922;2023-02-04T07:58:41;4.20;;;3.30;;
76667;SDS011;65585;51.166;16.922;2023-02-04T08:01:07;4.65;;;3.47;;
76667;SDS011;65585;51.166;16.922;2023-02-04T08:03:33;6.45;;;3.63;;
76667;SDS011;65585;51.166;16.922;2023-02-04T08:06:00;5.70;;;2.80;;
76667;SDS011;65585;51.166;16.922;2023-02-04T08:08:27;5.72;;;3.10;;
76667;SDS011;65585;51.166;16.922;2023-02-04T08:10:53;3.85;;;2.70;;
76667;SDS011;65585;51.166;16.922;2023-02-04T08:13:19;6.65;;;3.25;;
76667;SDS011;65585;51.166;16.922;2023-02-04T08:15:45;4.15;;;2.47;;
76667;SDS011;65585;51.166;16.922;2023-02-04T08:18:11;4.47;;;2.30;;
76667;SDS011;65585;51.166;16.922;2023-02-04T08:20:38;4.55;;;2.72;;
76667;SDS011;65585;51.166;16.922;2023-02-04T08:23:03;3.92;;;2.63;;
76667;SDS011;65585;51.166;16.922;2023-02-04T08:25:30;7.55;;;2.70;;
76667;SDS011;65585;51.166;16.922;2023-02-04T08:27:56;7.05;;;4.28;;
76667;SDS011;65585;51.166;16.922;2023-02-04T08:30:22;4.53;;;2.72;;
76667;SDS011;65585;51.166;16.922;2023-02-04T08:32:48;4.97;;;3.15;;
76667;SDS011;65585;51.166;16.922;2023-02-04T08:35:14;6.50;;;3.60;;
76667;SDS011;65585;51.166;16.922;2023-02-04T08:37:40;3.75;;;2.45;;
76667;SDS011;65585;51.166;16.922;2023-02-04T08:40:07;4.53;;;2.50;;
76667;SDS011;65585;51.166;16.922;2023-02-04T08:42:34;4.63;;;3.20;;
76667;SDS011;65585;51.166;16.922;2023-02-04T08:45:00;5.65;;;3.00;;
76667;SDS011;65585;51.166;16.922;2023-02-04T08:47:26;3.85;;;2.65;;
76667;SDS011;65585;51.166;16.922;2023-02-04T08:49:53;4.15;;;2.80;;
76667;SDS011;65585;51.166;16.922;2023-02-04T08:52:19;4.80;;;2.90;;
76667;SDS011;65585;51.166;16.922;2023-02-04T08:54:45;5.35;;;2.83;;
76667;SDS011;65585;51.166;16.922;2023-02-04T08:57:11;4.30;;;2.88;;
76667;SDS011;65585;51.166;16.922;2023-02-04T08:59:37;4.03;;;2.42;;
76667;SDS011;65585;51.166;16.922;2023-02-04T09:02:03;3.80;;;2.95;;
76667;SDS011;65585;51.166;16.922;2023-02-04T09:04:30;4.32;;;3.38;;
76667;SDS011;65585;51.166;16.922;2023-02-04T09:06:56;3.50;;;2.70;;
76667;SDS011;65585;51.166;16.922;2023-02-04T09:09:22;3.58;;;2.35;;
76667;SDS011;65585;51.166;16.922;2023-02-04T09:11:48;4.78;;;3.15;;
76667;SDS011;65585;51.166;16.922;2023-02-04T09:14:15;5.15;;;2.97;;
76667;SDS011;65585;51.166;16.922;2023-02-04T09:16:41;6.85;;;3.20;;
76667;SDS011;65585;51.166;16.922;2023-02-04T09:19:08;2.58;;;2.13;;
76667;SDS011;65585;51.166;16.922;2023-02-04T09:21:37;4.05;;;3.08;;
76667;SDS011;65585;51.166;16.922;2023-02-04T09:24:03;6.10;;;3.42;;
76667;SDS011;65585;51.166;16.922;2023-02-04T09:26:29;3.67;;;2.58;;
76667;SDS011;65585;51.166;16.922;2023-02-04T09:28:56;5.57;;;2.97;;
76667;SDS011;65585;51.166;16.922;2023-02-04T09:31:22;4.40;;;2.40;;
76667;SDS011;65585;51.166;16.922;2023-02-04T09:33:48;7.15;;;2.78;;
76667;SDS011;65585;51.166;16.922;2023-02-04T09:36:14;3.83;;;2.55;;
76667;SDS011;65585;51.166;16.922;2023-02-04T09:38:42;4.03;;;2.30;;
76667;SDS011;65585;51.166;16.922;2023-02-04T09:41:09;5.03;;;3.05;;
76667;SDS011;65585;51.166;16.922;2023-02-04T09:43:40;3.50;;;2.15;;
76667;SDS011;65585;51.166;16.922;2023-02-04T09:46:17;3.85;;;2.00;;
76667;SDS011;65585;51.166;16.922;2023-02-04T09:48:46;3.58;;;1.92;;
76667;SDS011;65585;51.166;16.922;2023-02-04T09:51:14;7.65;;;3.40;;
76667;SDS011;65585;51.166;16.922;2023-02-04T09:53:43;5.28;;;2.95;;
76667;SDS011;65585;51.166;16.922;2023-02-04T09:56:10;3.85;;;2.25;;
76667;SDS011;65585;51.166;16.922;2023-02-04T09:58:36;4.20;;;2.65;;
76667;SDS011;65585;51.166;16.922;2023-02-04T10:01:18;3.67;;;2.50;;
76667;SDS011;65585;51.166;16.922;2023-02-04T10:03:46;4.95;;;2.95;;
76667;SDS011;65585;51.166;16.922;2023-02-04T10:06:15;3.55;;;2.55;;
76667;SDS011;65585;51.166;16.922;2023-02-04T10:08:43;3.65;;;2.10;;
76667;SDS011;65585;51.166;16.922;2023-02-04T10:11:10;5.00;;;2.90;;
76667;SDS011;65585;51.166;16.922;2023-02-04T10:13:37;6.07;;;3.42;;
76667;SDS011;65585;51.166;16.922;2023-02-04T10:16:12;4.85;;;4.32;;
76667;SDS011;65585;51.166;16.922;2023-02-04T10:18:46;2.92;;;1.95;;
76667;SDS011;65585;51.166;16.922;2023-02-04T10:21:17;6.35;;;2.92;;
76667;SDS011;65585;51.166;16.922;2023-02-04T10:23:46;4.13;;;2.80;;
76667;SDS011;65585;51.166;16.922;2023-02-04T10:26:16;4.32;;;2.40;;
76667;SDS011;65585;51.166;16.922;2023-02-04T10:28:43;3.35;;;2.50;;
76667;SDS011;65585;51.166;16.922;2023-02-04T10:34:02;4.95;;;2.60;;
76667;SDS011;65585;51.166;16.922;2023-02-04T10:36:28;4.10;;;3.13;;
76667;SDS011;65585;51.166;16.922;2023-02-04T10:39:04;4.60;;;3.65;;
76667;SDS011;65585;51.166;16.922;2023-02-04T10:41:35;4.70;;;3.50;;
76667;SDS011;65585;51.166;16.922;2023-02-04T10:44:05;5.72;;;2.90;;
76667;SDS011;65585;51.166;16.922;2023-02-04T10:46:34;4.40;;;2.50;;
76667;SDS011;65585;51.166;16.922;2023-02-04T10:49:02;5.07;;;3.45;;
76667;SDS011;65585;51.166;16.922;2023-02-04T10:51:29;6.53;;;3.67;;
76667;SDS011;65585;51.166;16.922;2023-02-04T10:53:55;5.75;;;2.72;;
76667;SDS011;65585;51.166;16.922;2023-02-04T10:56:40;4.20;;;2.72;;
76667;SDS011;65585;51.166;16.922;2023-02-04T10:59:10;4.13;;;2.70;;
76667;SDS011;65585;51.166;16.922;2023-02-04T11:01:46;3.95;;;2.33;;
76667;SDS011;65585;51.166;16.922;2023-02-04T11:04:12;3.75;;;2.38;;
76667;SDS011;65585;51.166;16.922;2023-02-04T11:06:38;4.35;;;2.50;;
76667;SDS011;65585;51.166;16.922;2023-02-04T11:09:04;3.58;;;2.53;;
76667;SDS011;65585;51.166;16.922;2023-02-04T11:11:30;5.03;;;2.97;;
76667;SDS011;65585;51.166;16.922;2023-02-04T11:13:58;3.65;;;2.05;;
76667;SDS011;65585;51.166;16.922;2023-02-04T11:16:27;4.40;;;2.35;;
76667;SDS011;65585;51.166;16.922;2023-02-04T11:18:57;5.78;;;1.90;;
76667;SDS011;65585;51.166;16.922;2023-02-04T11:24:05;3.70;;;1.73;;
76667;SDS011;65585;51.166;16.922;2023-02-04T11:29:09;2.17;;;1.38;;
76667;SDS011;65585;51.166;16.922;2023-02-04T11:32:00;3.28;;;1.67;;
76667;SDS011;65585;51.166;16.922;2023-02-04T11:34:29;3.80;;;1.88;;
76667;SDS011;65585;51.166;16.922;2023-02-04T11:37:02;2.30;;;1.63;;
76667;SDS011;65585;51.166;16.922;2023-02-04T11:39:38;3.50;;;2.00;;
76667;SDS011;65585;51.166;16.922;2023-02-04T11:42:14;4.25;;;2.45;;
76667;SDS011;65585;51.166;16.922;2023-02-04T11:44:53;2.67;;;1.80;;
76667;SDS011;65585;51.166;16.922;2023-02-04T11:47:23;4.80;;;2.15;;
76667;SDS011;65585;51.166;16.922;2023-02-04T11:49:55;4.40;;;2.20;;
76667;SDS011;65585;51.166;16.922;2023-02-04T11:52:23;4.38;;;3.35;;
76667;SDS011;65585;51.166;16.922;2023-02-04T11:54:59;3.03;;;1.90;;
76667;SDS011;65585;51.166;16.922;2023-02-04T11:57:25;3.55;;;2.33;;
76667;SDS011;65585;51.166;16.922;2023-02-04T11:59:52;5.03;;;2.30;;
76667;SDS011;65585;51.166;16.922;2023-02-04T12:02:20;6.43;;;2.42;;
76667;SDS011;65585;51.166;16.922;2023-02-04T12:04:56;5.70;;;3.35;;
76667;SDS011;65585;51.166;16.922;2023-02-04T12:07:33;5.18;;;3.22;;
76667;SDS011;65585;51.166;16.922;2023-02-04T12:10:09;2.95;;;1.75;;
76667;SDS011;65585;51.166;16.922;2023-02-04T12:12:57;4.47;;;1.85;;
76667;SDS011;65585;51.166;16.922;2023-02-04T12:15:29;3.30;;;2.03;;
76667;SDS011;65585;51.166;16.922;2023-02-04T12:18:06;2.75;;;2.03;;
76667;SDS011;65585;51.166;16.922;2023-02-04T12:23:00;3.50;;;2.30;;
76667;SDS011;65585;51.166;16.922;2023-02-04T12:25:26;4.13;;;2.03;;
76667;SDS011;65585;51.166;16.922;2023-02-04T12:27:53;3.75;;;1.80;;
76667;SDS011;65585;51.166;16.922;2023-02-04T12:30:20;5.32;;;2.60;;
76667;SDS011;65585;51.166;16.922;2023-02-04T12:32:47;4.68;;;2.83;;
76667;SDS011;65585;51.166;16.922;2023-02-04T12:35:14;4.22;;;1.95;;
76667;SDS011;65585;51.166;16.922;2023-02-04T12:37:40;2.63;;;1.70;;
76667;SDS011;65585;51.166;16.922;2023-02-04T12:40:08;2.60;;;1.85;;
76667;SDS011;65585;51.166;16.922;2023-02-04T12:42:39;2.55;;;1.58;;
76667;SDS011;65585;51.166;16.922;2023-02-04T12:45:05;2.30;;;1.80;;
76667;SDS011;65585;51.166;16.922;2023-02-04T12:47:32;2.47;;;1.63;;
76667;SDS011;65585;51.166;16.922;2023-02-04T12:49:58;3.03;;;1.80;;
76667;SDS011;65585;51.166;16.922;2023-02-04T12:52:28;3.55;;;2.38;;
76667;SDS011;65585;51.166;16.922;2023-02-04T12:54:54;3.15;;;2.50;;
76667;SDS011;65585;51.166;16.922;2023-02-04T12:57:20;4.75;;;3.10;;
76667;SDS011;65585;51.166;16.922;2023-02-04T12:59:46;4.35;;;2.20;;
76667;SDS011;65585;51.166;16.922;2023-02-04T13:02:14;2.85;;;2.17;;
76667;SDS011;65585;51.166;16.922;2023-02-04T13:04:41;5.03;;;2.30;;
76667;SDS011;65585;51.166;16.922;2023-02-04T13:07:07;4.18;;;2.80;;
76667;SDS011;65585;51.166;16.922;2023-02-04T13:09:35;4.25;;;2.20;;
76667;SDS011;65585;51.166;16.922;2023-02-04T13:12:02;4.18;;;2.67;;
76667;SDS011;65585;51.166;16.922;2023-02-04T13:14:28;5.68;;;1.95;;
76667;SDS011;65585;51.166;16.922;2023-02-04T13:16:54;2.15;;;1.48;;
76667;SDS011;65585;51.166;16.922;2023-02-04T13:19:21;2.97;;;1.70;;
76667;SDS011;65585;51.166;16.922;2023-02-04T13:21:47;15.82;;;2.20;;
76667;SDS011;65585;51.166;16.922;2023-02-04T13:24:13;5.30;;;2.78;;
76667;SDS011;65585;51.166;16.922;2023-02-04T13:26:39;3.25;;;1.77;;
76667;SDS011;65585;51.166;16.922;2023-02-04T13:29:06;3.95;;;2.15;;
76667;SDS011;65585;51.166;16.922;2023-02-04T13:31:32;4.78;;;2.60;;
76667;SDS011;65585;51.166;16.922;2023-02-04T13:33:58;11.65;;;6.35;;
76667;SDS011;65585;51.166;16.922;2023-02-04T13:36:24;8.35;;;4.63;;
76667;SDS011;65585;51.166;16.922;2023-02-04T13:38:52;8.18;;;3.13;;
76667;SDS011;65585;51.166;16.922;2023-02-04T13:41:18;9.40;;;4.70;;
76667;SDS011;65585;51.166;16.922;2023-02-04T13:43:45;5.63;;;3.65;;
76667;SDS011;65585;51.166;16.922;2023-02-04T13:46:10;2.80;;;1.95;;
76667;SDS011;65585;51.166;16.922;2023-02-04T13:48:37;6.35;;;2.97;;
76667;SDS011;65585;51.166;16.922;2023-02-04T13:51:03;4.38;;;2.60;;
76667;SDS011;65585;51.166;16.922;2023-02-04T13:53:29;4.60;;;2.78;;
76667;SDS011;65585;51.166;16.922;2023-02-04T13:55:56;6.13;;;2.45;;
76667;SDS011;65585;51.166;16.922;2023-02-04T13:58:23;6.25;;;2.97;;
76667;SDS011;65585;51.166;16.922;2023-02-04T14:00:49;5.45;;;2.50;;
76667;SDS011;65585;51.166;16.922;2023-02-04T14:03:16;5.38;;;3.75;;
76667;SDS011;65585;51.166;16.922;2023-02-04T14:05:41;4.55;;;2.38;;
76667;SDS011;65585;51.166;16.922;2023-02-04T14:08:08;9.52;;;2.67;;
76667;SDS011;65585;51.166;16.922;2023-02-04T14:10:34;6.47;;;3.53;;
76667;SDS011;65585;51.166;16.922;2023-02-04T14:13:00;9.57;;;4.57;;
76667;SDS011;65585;51.166;16.922;2023-02-04T14:15:26;9.98;;;5.32;;
76667;SDS011;65585;51.166;16.922;2023-02-04T14:17:53;8.68;;;4.95;;
76667;SDS011;65585;51.166;16.922;2023-02-04T14:20:18;12.75;;;5.85;;
76667;SDS011;65585;51.166;16.922;2023-02-04T14:22:45;8.00;;;3.67;;
76667;SDS011;65585;51.166;16.922;2023-02-04T14:25:11;4.90;;;3.20;;
76667;SDS011;65585;51.166;16.922;2023-02-04T14:27:37;6.13;;;3.30;;
76667;SDS011;65585;51.166;16.922;2023-02-04T14:30:06;5.07;;;2.70;;
76667;SDS011;65585;51.166;16.922;2023-02-04T14:32:44;6.22;;;3.42;;
76667;SDS011;65585;51.166;16.922;2023-02-04T14:35:10;6.18;;;3.30;;
76667;SDS011;65585;51.166;16.922;2023-02-04T14:37:37;7.68;;;4.28;;
76667;SDS011;65585;51.166;16.922;2023-02-04T14:40:03;6.38;;;3.08;;
76667;SDS011;65585;51.166;16.922;2023-02-04T14:42:30;4.72;;;3.50;;
76667;SDS011;65585;51.166;16.922;2023-02-04T14:44:56;5.40;;;3.42;;
76667;SDS011;65585;51.166;16.922;2023-02-04T14:47:22;6.80;;;3.22;;
76667;SDS011;65585;51.166;16.922;2023-02-04T14:49:48;6.68;;;3.67;;